Flight Track Log - Related Links

Times and Time Zones

All times are in EDT time to prevent confusion due to time zone crossing. See the N5081E flight status page for this flight to view local times or setup timezone preferences in your user account.

Time Position Orientation Groundspeed Altitude Reporting Facility
EDT Latitude Longitude Course Direction KTS MPH feet Rate Location/Type
Sat 12:29:08 PM 43.0592 -89.3239 163° South 118 136 2,800  Level Chicago Center
Sat 12:30:10 PM 43.0261 -89.3111 164° South 121 139 3,400 581 Climbing Chicago Center
Sat 12:31:12 PM 42.9936 -89.2947 160° South 123 142 4,000 581 Climbing Chicago Center
Sat 12:32:14 PM 42.9614 -89.2781 159° South 123 142 4,600 484 Climbing Chicago Center
Sat 12:33:00 PM 42.8939 -89.2293 163° South  Level FlightAware Approximate
Sat 12:33:16 PM 42.9272 -89.2644 164° South 126 145 5,000  Level Chicago Center
Sat 12:34:00 PM 42.8538 -89.2126 163° South  Level FlightAware Approximate
Sat 12:34:18 PM 42.8844 -89.2469 163° South 134 154 5,000  Level Chicago Center
Sat 12:35:20 PM 42.8442 -89.2294 162° South 144 166 5,000  Level Chicago Center
Sat 12:36:22 PM 42.8033 -89.2117 162° South 151 174 5,000  Level Chicago Center
Sat 12:37:24 PM 42.7650 -89.1958 163° South 147 169 5,000  Level Chicago Center
Sat 12:38:26 PM 42.7244 -89.1781 162° South 150 173 5,000  Level Chicago Center
Sat 12:39:28 PM 42.6856 -89.1600 161° South 150 173 5,000  Level Chicago Center
Sat 12:40:30 PM 42.6614 -89.1000 119° Southeast 157 181 5,000  Level Chicago Center
Sat 12:41:32 PM 42.6383 -89.0539 124° Southeast 152 175 5,000  Level Chicago Center
Sat 12:42:34 PM 42.6156 -89.0036 122° Southeast 154 177 5,000  Level Chicago Center
Sat 12:43:36 PM 42.5922 -88.9544 123° Southeast 154 177 5,000  Level Chicago Center
Sat 12:44:38 PM 42.5681 -88.9061 124° Southeast 155 178 5,000  Level Chicago Center
Sat 12:45:40 PM 42.5414 -88.8492 122° Southeast 154 177 5,000  Level Chicago Center
Sat 12:46:42 PM 42.5183 -88.7989 122° Southeast 155 178 5,000  Level Chicago Center
Sat 12:47:44 PM 42.4942 -88.7497 124° Southeast 156 180 5,000  Level Chicago Center
Sat 12:48:46 PM 42.4706 -88.7000 123° Southeast 157 181 5,000  Level Chicago Center
Sat 12:49:48 PM 42.4475 -88.6506 122° Southeast 156 180 5,000  Level Chicago Center
Sat 12:50:50 PM 42.4208 -88.5950 123° Southeast 152 175 5,000  Level Chicago Center
Sat 12:51:52 PM 42.3969 -88.5467 124° Southeast 153 176 5,000 -48 Level Chicago Center
Sat 12:52:54 PM 42.3825 -88.4939 110° East 151 174 4,900 -242 Descending Chicago Center
Sat 12:53:56 PM 42.3794 -88.4364 94° East 154 177 4,500 -435 Descending Chicago Center
Sat 12:54:58 PM 42.3744 -88.3739 96° East 159 183 4,000 -484 Descending Chicago Center
Sat 12:56:00 PM 42.3683 -88.3147 98° East 161 185 3,500 -484 Descending Chicago Center
Sat 12:57:02 PM 42.3642 -88.2422 94° East 164 189 3,000 -242 Descending Chicago Center
Sat 12:58:04 PM 42.3603 -88.1878 96° East 156 180 3,000  Level Chicago Center
Sat 12:59:06 PM 42.3578 -88.1369 94° East 143 165 3,000  Level Chicago Center
Sat 01:00:08 PM 42.3550 -88.0817 94° East 144 166 3,000  Level Chicago Center
Sat 01:01:10 PM 42.3356 -88.0417 123° Southeast 135 155 3,000  Level Chicago Center
Sat 01:02:12 PM 42.3122 -88.0061 132° Southeast 130 150 3,000  Level Chicago Center
Sat 01:03:14 PM 42.2686 -87.9869 162° South 137 158 3,000  Level Chicago Center
Sat 01:04:16 PM 42.2342 -87.9653 155° Southeast 137 158 3,000 -290 Level Chicago Center
Sat 01:05:18 PM 42.2044 -87.9514 161° South 126 145 2,400 -585 Descending Chicago Center
Sat 01:06:19 PM 42.1756 -87.9358 158° South 118 136 1,800 -590 Descending Chicago Center
Sat 01:09:00 PM 42.1253 -87.9120 161° South  Level FlightAware Approximate
Sat 01:16:00 PM 42.1143 -87.9015 160° South  Level Estimated

Login

Don't have an account? Register now (free) for customized features, flight alerts, and more!